Aérodrome :
LOGIN :

S'inscrire | Disclaimer

   EN    FR    IT 

 










Légende :    VFR   VFR Marginal   IFR   IFR Intensif   IFR Très Intensif
Visi : 
Plafond : 
>= 8 km
>= 3000ft
5 à 8 km
1000 à 3000 ft
1500m à 5 km
500 à 1000 ft
800 à 1500m
200 à 500 ft
< 800m
< 200 ft
Symboles :   Orages  Brouillard  Fortes neiges  Fortes précipitations  Vent > 20 kt
SIGMETs :   Divers  Orages  Givrage  Turbulence  Onde Orograph.  Cendres Volcan.







- Altitude de l'aérodrome : 13 ft
- Code IATA : CEQ
- Voir les cartes d'approche


LFMD - Cannes Mandelieu

DERNIER METAR :
  • 151430Z AUTO 10007KT 030V200 CAVOK 23/11 Q1014 TEMPO 08020G30KT

METARs EXPIRÉS :
  • 151400Z AUTO 11007KT 050V170 CAVOK 23/11 Q1014 TEMPO 08020G30KT
  • 151330Z AUTO 11007KT 050V160 CAVOK 23/12 Q1014 TEMPO 08020G30KT
  • 151300Z AUTO 10009KT 050V180 CAVOK 22/11 Q1014 TEMPO 08020G30KT
  • 151230Z AUTO 10006KT 040V180 CAVOK 23/11 Q1014 TEMPO 08020G30KT
  • 151200Z AUTO 09007G17KT 020V170 CAVOK 23/11 Q1014 TEMPO 08020G30KT

TAF TAF LFMD
Valide du 15 à 15h jusqu'au 16 à 15h UTC


151400Z 1515/1615 08010KT 9999 BKN090
TEMPO 1515/1518 08020G30KT
TEMPO 1522/1603 8000 SHRA SCT020TCU OVC035
BECMG 1600/1603 03005KT
BECMG 1603/1605 BKN066
PROB30
TEMPO 1608/1615 6000 SHRA SCT015TCU BKN030
TEMPO 1610/1615 08020G30KT
ATIS : +33 4 93 48 73 23
Pas de NOTAMs connus pour ce terrain.
2 SIGMETs publiés pour la FIR Marseille (LFMM) :
 
Turbulence forte
LFMM SIGMET 13 VALID 151400/151800 LFPW
LFMM MARSEILLE FIR/UIR SEV TURB FCST WI N4400 E00245 - N4600 E00300 - N4600 E00315 - N4345 E00415 - N4345 E00700 - N4245 E00700 - N4330 E00300 - N4400 E00245 SFC/FL070 STNR NC=
Annulation du SIGMET 11
LFMM SIGMET 12 VALID 151250/151400 LFPW
LFMM MARSEILLE FIR/UIR CNL SIGMET 11 151200/151400=



MET'MAP, la Météo Aéronautique d'un coup d'oeil ! - Copyright ORBIFLY Décembre 2007 - Disclaimer

ORBIFLY MET'MAP TEAM :

Programmation & Développement : Alexandra Zaïnal
Conception & Développement : Baudouin d'Aumeries
Co-Programmation & Développement : Marc-Olivier Méhu
Soutien technique & logistique : Manuel Goepfert

Contact : metmap@orbifly.com




SOURCES & CREDITS :

   NOAA